createdAt,value
2019-02-16T00:03:41.969Z,6.65
2019-02-16T00:06:23.665Z,7.42
2019-02-16T00:09:05.677Z,4.12
2019-02-16T00:11:49.145Z,6.78
2019-02-16T00:14:31.915Z,7.10
2019-02-16T00:17:13.820Z,8.63
2019-02-16T00:19:55.610Z,8.10
2019-02-16T00:22:37.531Z,9.38
2019-02-16T00:25:19.576Z,7.20
2019-02-16T00:28:01.540Z,7.75
2019-02-16T00:30:43.989Z,11.63
2019-02-16T00:33:25.849Z,12.47
2019-02-16T00:36:08.612Z,6.03
2019-02-16T00:38:51.057Z,5.90
2019-02-16T00:41:32.885Z,5.17
2019-02-16T00:44:14.557Z,11.48
2019-02-16T00:46:57.381Z,6.87
2019-02-16T00:49:39.958Z,7.00
2019-02-16T00:52:21.851Z,8.03
2019-02-16T00:55:03.885Z,11.70
2019-02-16T00:57:45.923Z,11.33
2019-02-16T01:00:28.705Z,6.78
2019-02-16T01:03:10.676Z,12.00
2019-02-16T01:05:52.734Z,8.13
2019-02-16T01:08:35.612Z,10.65
2019-02-16T01:11:18.094Z,6.78
2019-02-16T01:13:58.950Z,8.03
2019-02-16T01:16:48.568Z,6.20
2019-02-16T01:19:31.313Z,6.37
2019-02-16T01:22:14.025Z,9.33
2019-02-16T01:24:56.341Z,6.92
2019-02-16T01:27:38.413Z,8.98
2019-02-16T01:30:20.392Z,7.05
2019-02-16T01:33:02.665Z,11.28
2019-02-16T01:35:44.414Z,8.83
2019-02-16T01:38:26.143Z,7.42
2019-02-16T01:41:08.548Z,6.87
2019-02-16T01:43:50.912Z,6.45
2019-02-16T01:46:33.380Z,8.28
2019-02-16T01:49:15.796Z,6.45
2019-02-16T01:51:56.625Z,10.88
2019-02-16T01:54:46.229Z,5.58
2019-02-16T01:57:28.274Z,7.40
2019-02-16T02:00:10.472Z,7.50
2019-02-16T02:02:52.172Z,5.55
2019-02-16T02:05:34.821Z,5.33
2019-02-16T02:08:17.325Z,6.75
2019-02-16T02:11:00.292Z,5.97
2019-02-16T02:13:42.076Z,7.25
2019-02-16T02:16:24.488Z,8.80
2019-02-16T02:19:06.277Z,6.97
2019-02-16T02:21:48.704Z,7.50
2019-02-16T02:24:30.459Z,7.40
2019-02-16T02:27:13.000Z,7.70
2019-02-16T02:29:55.600Z,8.65
2019-02-16T02:32:37.250Z,6.90
2019-02-16T02:35:20.045Z,5.93
2019-02-16T02:38:01.945Z,6.00
2019-02-16T02:40:44.796Z,7.03
2019-02-16T02:43:26.673Z,7.28
2019-02-16T02:46:09.520Z,6.03
2019-02-16T02:48:49.937Z,9.03
2019-02-16T02:51:39.593Z,6.30
2019-02-16T02:54:21.541Z,5.87
2019-02-16T02:57:03.898Z,9.33
2019-02-16T02:59:45.597Z,7.67
2019-02-16T03:02:28.321Z,7.67
2019-02-16T03:05:10.316Z,8.48
2019-02-16T03:07:52.661Z,7.62
2019-02-16T03:10:35.182Z,7.15
2019-02-16T03:13:18.332Z,9.50
2019-02-16T03:16:00.245Z,7.72
2019-02-16T03:18:42.820Z,8.23
2019-02-16T03:21:25.108Z,6.35
2019-02-16T03:24:07.164Z,12.05
2019-02-16T03:26:49.196Z,8.18
2019-02-16T03:29:31.832Z,7.85
2019-02-16T03:32:14.197Z,8.35
2019-02-16T03:34:56.742Z,8.45
2019-02-16T03:37:39.281Z,7.85
2019-02-16T03:40:20.954Z,8.98
2019-02-16T03:43:03.425Z,8.55
2019-02-16T03:45:47.000Z,10.20
2019-02-16T03:48:29.461Z,12.40
2019-02-16T03:51:11.613Z,12.15
2019-02-16T03:53:53.378Z,7.95
2019-02-16T03:56:35.456Z,10.85
2019-02-16T03:59:18.244Z,6.70
2019-02-16T04:02:00.678Z,8.63
2019-02-16T04:04:43.117Z,9.90
2019-02-16T04:07:25.628Z,9.78
2019-02-16T04:10:07.892Z,8.33
2019-02-16T04:12:50.350Z,8.40
2019-02-16T04:15:33.038Z,9.18
2019-02-16T04:18:15.057Z,11.03
2019-02-16T04:20:57.146Z,10.48
2019-02-16T04:23:39.250Z,11.35
2019-02-16T04:26:20.117Z,10.55
2019-02-16T04:29:09.718Z,10.10
2019-02-16T04:31:52.260Z,10.00
2019-02-16T04:34:34.561Z,9.75
2019-02-16T04:37:16.288Z,10.10
2019-02-16T04:39:58.129Z,9.90
2019-02-16T04:42:39.972Z,10.03
2019-02-16T04:45:22.785Z,8.38
2019-02-16T04:48:05.432Z,7.33
2019-02-16T04:50:45.825Z,6.72
2019-02-16T04:53:28.192Z,8.33
2019-02-16T04:56:10.697Z,8.68
2019-02-16T04:58:51.254Z,8.00
2019-02-16T05:01:40.614Z,10.68
2019-02-16T05:04:23.176Z,8.18
2019-02-16T05:07:05.781Z,8.25
2019-02-16T05:09:46.374Z,9.38
2019-02-16T05:12:36.056Z,9.23
2019-02-16T05:15:18.916Z,10.98
2019-02-16T05:18:01.324Z,8.73
2019-02-16T05:20:43.056Z,10.53
2019-02-16T05:23:25.504Z,11.63
2019-02-16T05:26:07.417Z,16.95
2019-02-16T05:28:50.044Z,12.70
2019-02-16T05:31:31.913Z,14.83
2019-02-16T05:34:13.789Z,11.55
2019-02-16T05:36:56.257Z,22.50
2019-02-16T05:39:39.017Z,21.40
2019-02-16T05:42:20.960Z,13.32
2019-02-16T05:45:01.549Z,11.90
2019-02-16T05:47:51.249Z,10.00
2019-02-16T05:50:34.164Z,13.80
2019-02-16T05:53:16.506Z,9.65
2019-02-16T05:55:59.241Z,10.20
2019-02-16T05:58:41.720Z,12.93
2019-02-16T06:01:22.448Z,7.97
2019-02-16T06:04:12.012Z,11.55
2019-02-16T06:06:53.988Z,11.73
2019-02-16T06:09:34.384Z,11.18
2019-02-16T06:12:24.079Z,8.90
2019-02-16T06:15:07.227Z,10.20
2019-02-16T06:17:49.832Z,8.73
2019-02-16T06:20:31.833Z,11.70
2019-02-16T06:23:14.340Z,7.42
2019-02-16T06:25:56.519Z,8.75
2019-02-16T06:28:39.029Z,9.65
2019-02-16T06:31:22.120Z,9.18
2019-02-16T06:34:02.744Z,8.55
2019-02-16T06:36:52.100Z,10.78
2019-02-16T06:39:34.777Z,14.23
2019-02-16T06:42:17.438Z,8.95
2019-02-16T06:44:59.208Z,8.73
2019-02-16T06:47:41.500Z,11.35
2019-02-16T06:50:23.260Z,10.28
2019-02-16T06:53:12.897Z,10.93
2019-02-16T06:55:50.541Z,12.33
2019-02-16T06:58:20.568Z,12.07
2019-02-16T07:00:51.133Z,11.75
2019-02-16T07:03:21.225Z,13.55
2019-02-16T07:06:03.802Z,11.50
2019-02-16T07:08:45.550Z,9.43
2019-02-16T07:11:27.647Z,8.18
2019-02-16T07:14:09.384Z,7.67
2019-02-16T07:20:18.588Z,11.73
2019-02-16T07:23:01.100Z,9.73
2019-02-16T07:25:43.833Z,10.72
2019-02-16T07:28:26.477Z,12.88
2019-02-16T07:31:10.189Z,12.35
2019-02-16T07:33:53.018Z,11.78
2019-02-16T07:36:35.665Z,8.65
2019-02-16T07:39:17.889Z,12.17
2019-02-16T07:41:59.945Z,14.25
2019-02-16T07:44:47.141Z,11.65
2019-02-16T07:47:48.741Z,11.48
2019-02-16T07:50:50.384Z,12.30
2019-02-16T07:53:52.100Z,9.05
2019-02-16T07:56:46.910Z,11.43
2019-02-16T07:59:31.981Z,7.70
2019-02-16T08:02:14.561Z,8.10
2019-02-16T08:05:03.707Z,8.07
2019-02-16T08:08:01.685Z,9.63
2019-02-16T08:10:57.609Z,7.30
2019-02-16T08:13:58.910Z,5.37
2019-02-16T08:16:46.733Z,8.93
2019-02-16T08:19:43.601Z,17.07
2019-02-16T08:22:44.452Z,10.23
2019-02-16T08:25:45.600Z,9.40
2019-02-16T08:28:42.724Z,7.03
2019-02-16T08:31:20.319Z,10.73
2019-02-16T08:34:28.749Z,4.23
2019-02-16T08:37:30.094Z,4.97
2019-02-16T08:40:25.708Z,3.10
2019-02-16T08:43:18.260Z,3.60
2019-02-16T08:46:19.713Z,3.97
2019-02-16T08:49:12.725Z,4.63
2019-02-16T08:52:09.508Z,4.50
2019-02-16T08:58:14.736Z,4.20
2019-02-16T09:01:16.424Z,3.43
2019-02-16T09:04:06.093Z,4.90
2019-02-16T09:06:57.677Z,3.50
2019-02-16T09:10:13.606Z,3.70
2019-02-16T09:12:58.100Z,5.47
2019-02-16T09:15:37.856Z,4.10
2019-02-16T09:18:16.384Z,3.73
2019-02-16T09:21:15.263Z,6.13
2019-02-16T09:30:56.640Z,2.40
2019-02-16T09:33:58.025Z,3.77
2019-02-16T09:36:53.845Z,2.80
2019-02-16T09:39:42.813Z,6.33
2019-02-16T09:42:35.099Z,4.30
2019-02-16T09:45:24.209Z,2.67
2019-02-16T09:48:25.014Z,3.87
2019-02-16T09:51:13.485Z,3.20
2019-02-16T09:54:14.610Z,3.10
2019-02-16T09:57:15.525Z,3.50
2019-02-16T10:00:13.932Z,1.87
2019-02-16T10:02:51.713Z,2.70
2019-02-16T10:05:34.395Z,3.37
2019-02-16T10:11:44.874Z,2.20
2019-02-16T10:14:33.992Z,2.77
2019-02-16T10:17:26.378Z,2.60
2019-02-16T10:20:27.505Z,2.80
2019-02-16T10:23:19.388Z,2.60
2019-02-16T10:26:14.387Z,3.07
2019-02-16T10:29:02.590Z,2.70
2019-02-16T10:31:44.484Z,2.37
2019-02-16T10:34:25.721Z,2.20
2019-02-16T10:37:03.840Z,1.27
2019-02-16T10:40:05.577Z,2.07
2019-02-16T10:43:06.461Z,3.07
2019-02-16T10:46:01.528Z,2.43
2019-02-16T10:48:52.807Z,1.82
2019-02-16T10:51:40.792Z,1.37
2019-02-16T10:54:28.028Z,1.53
2019-02-16T10:57:25.169Z,1.50
2019-02-16T11:00:21.810Z,2.27
2019-02-16T11:03:15.536Z,1.57
2019-02-16T11:06:28.104Z,2.30
2019-02-16T11:09:19.885Z,1.70
2019-02-16T11:12:21.861Z,1.30
2019-02-16T11:15:22.742Z,2.03
2019-02-16T11:21:38.737Z,1.83
2019-02-16T11:24:39.705Z,1.70
2019-02-16T11:27:41.384Z,2.62
2019-02-16T11:30:43.085Z,2.20
2019-02-16T11:33:44.928Z,2.50
2019-02-16T11:36:36.713Z,14.40
2019-02-16T11:39:38.180Z,1.70
2019-02-16T11:45:40.105Z,3.10
2019-02-16T11:48:47.216Z,2.43
2019-02-16T11:51:48.865Z,2.13
2019-02-16T11:54:45.472Z,1.20
2019-02-16T11:58:00.617Z,1.87
2019-02-16T12:01:05.588Z,1.30
2019-02-16T12:04:06.469Z,2.33
2019-02-16T12:06:59.140Z,1.10
2019-02-16T12:13:17.417Z,3.10
2019-02-16T12:16:18.559Z,1.60
2019-02-16T12:19:11.256Z,2.33
2019-02-16T12:22:18.504Z,3.43
2019-02-16T12:25:19.841Z,3.10
2019-02-16T12:28:08.638Z,1.40
2019-02-16T12:31:10.470Z,6.17
2019-02-16T12:34:00.238Z,4.93
2019-02-16T12:37:01.349Z,7.63
2019-02-16T12:39:59.156Z,2.27
2019-02-16T12:43:00.433Z,2.33
2019-02-16T12:46:09.110Z,2.90
2019-02-16T12:48:58.192Z,2.53
2019-02-16T12:51:55.565Z,1.67
2019-02-16T12:55:02.782Z,0.87
2019-02-16T12:57:50.993Z,1.20
2019-02-16T13:00:44.393Z,1.20
2019-02-16T13:03:38.574Z,1.00
2019-02-16T13:06:32.245Z,0.97
2019-02-16T13:09:27.869Z,2.60
2019-02-16T13:12:32.720Z,0.93
2019-02-16T13:15:40.262Z,2.90
2019-02-16T13:18:42.258Z,2.00
2019-02-16T13:21:53.544Z,1.00
2019-02-16T13:24:42.009Z,1.00
2019-02-16T13:31:09.609Z,1.13
2019-02-16T13:34:10.730Z,1.70
2019-02-16T13:37:09.956Z,4.70
2019-02-16T13:43:16.384Z,1.80
2019-02-16T13:46:18.313Z,2.10
2019-02-16T13:49:08.884Z,2.17
2019-02-16T13:52:09.653Z,1.43
2019-02-16T13:55:11.449Z,2.10
2019-02-16T13:58:06.035Z,1.20
2019-02-16T14:01:10.171Z,1.27
2019-02-16T14:04:11.837Z,1.20
2019-02-16T14:07:12.997Z,2.40
2019-02-16T14:10:08.269Z,2.37
2019-02-16T14:16:23.081Z,1.70
2019-02-16T14:18:53.659Z,5.03
2019-02-16T14:21:23.957Z,1.97
2019-02-16T14:23:54.524Z,2.10
2019-02-16T14:26:24.815Z,1.50
2019-02-16T14:28:54.933Z,2.80
2019-02-16T14:31:44.609Z,39.87
2019-02-16T14:34:27.460Z,5.47
2019-02-16T14:40:12.929Z,5.30
2019-02-16T14:42:55.469Z,2.00
2019-02-16T14:45:39.912Z,2.20
2019-02-16T14:48:22.381Z,2.13
2019-02-16T14:51:05.304Z,2.60
2019-02-16T14:53:48.205Z,2.10
2019-02-16T14:56:28.697Z,1.80
2019-02-16T14:59:18.256Z,1.60
2019-02-16T15:02:00.221Z,2.70
2019-02-16T15:04:42.019Z,2.27
2019-02-16T15:07:22.777Z,1.43
2019-02-16T15:10:12.516Z,1.83
2019-02-16T15:12:54.667Z,2.57
2019-02-16T15:15:37.058Z,3.17
2019-02-16T15:18:19.193Z,3.53
2019-02-16T15:21:00.946Z,3.70
2019-02-16T15:23:43.837Z,1.80
2019-02-16T15:26:28.683Z,3.90
2019-02-16T15:29:08.252Z,1.57
2019-02-16T15:31:57.560Z,2.53
2019-02-16T15:34:39.598Z,2.10
2019-02-16T15:37:22.765Z,2.67
2019-02-16T15:40:04.664Z,1.90
2019-02-16T15:42:47.465Z,1.30
2019-02-16T15:45:29.457Z,1.43
2019-02-16T15:48:11.744Z,1.37
2019-02-16T15:50:53.392Z,1.60
2019-02-16T15:53:35.469Z,2.07
2019-02-16T15:56:17.777Z,1.50
2019-02-16T15:58:59.831Z,1.83
2019-02-16T16:01:42.308Z,1.70
2019-02-16T16:04:25.191Z,2.40
2019-02-16T16:07:13.496Z,1.60
2019-02-16T16:10:15.413Z,2.70
2019-02-16T16:16:44.558Z,8.70
2019-02-16T16:19:27.004Z,4.93
2019-02-16T16:22:04.552Z,3.53
2019-02-16T16:24:42.492Z,4.67
2019-02-16T16:27:24.436Z,5.97
2019-02-16T16:30:07.024Z,5.50
2019-02-16T16:32:50.540Z,6.03
2019-02-16T16:35:33.992Z,24.90
2019-02-16T16:38:21.182Z,66.10
2019-02-16T16:41:13.233Z,25.37
2019-02-16T16:44:02.413Z,17.77
2019-02-16T16:46:58.416Z,14.27
2019-02-16T16:53:18.794Z,19.37
2019-02-16T16:56:28.955Z,13.07
2019-02-16T16:59:36.942Z,17.47
2019-02-16T17:02:37.881Z,49.83
2019-02-16T17:05:32.265Z,75.03
2019-02-16T17:15:10.711Z,148.07
2019-02-16T17:17:56.753Z,48.90
2019-02-16T17:21:05.428Z,9.87
2019-02-16T17:23:57.472Z,9.57
2019-02-16T17:26:59.101Z,9.63
2019-02-16T17:30:00.241Z,12.90
2019-02-16T17:33:01.513Z,18.10
2019-02-16T17:36:02.825Z,17.83
2019-02-16T17:39:04.155Z,12.73
2019-02-16T17:45:19.893Z,5.20
2019-02-16T17:48:08.993Z,4.40
2019-02-16T17:51:17.785Z,5.67
2019-02-16T17:54:19.352Z,5.57
2019-02-16T17:57:21.103Z,6.13
2019-02-16T18:00:09.517Z,4.80
2019-02-16T18:03:06.749Z,4.30
2019-02-16T18:06:08.068Z,9.23
2019-02-16T18:09:09.808Z,4.63
2019-02-16T18:12:03.589Z,12.33
2019-02-16T18:18:23.077Z,4.00
2019-02-16T18:21:26.748Z,4.00
2019-02-16T18:24:24.564Z,3.97
2019-02-16T18:27:25.809Z,7.60
2019-02-16T18:30:17.221Z,4.17
2019-02-16T18:33:07.992Z,6.20
2019-02-16T18:35:59.913Z,8.10
2019-02-16T18:38:48.017Z,6.90
2019-02-16T18:41:56.470Z,5.27
2019-02-16T18:44:48.301Z,5.27
2019-02-16T18:47:52.309Z,5.37
2019-02-16T18:50:54.005Z,6.43
2019-02-16T18:53:55.100Z,3.20
2019-02-16T18:57:06.121Z,4.70
2019-02-16T18:59:59.960Z,5.50
2019-02-16T19:02:55.272Z,4.63
2019-02-16T19:05:50.065Z,17.70
2019-02-16T19:11:56.668Z,32.13
2019-02-16T19:14:44.335Z,44.70
2019-02-16T19:17:39.677Z,49.27
2019-02-16T19:20:28.291Z,23.60
2019-02-16T19:23:07.411Z,19.60
2019-02-16T19:25:59.564Z,11.60
2019-02-16T19:29:08.057Z,18.23
2019-02-16T19:31:59.694Z,13.43
2019-02-16T19:35:01.593Z,3.93
2019-02-16T19:38:03.301Z,4.20
2019-02-16T19:41:06.350Z,3.47
2019-02-16T19:44:07.645Z,3.33
2019-02-16T19:50:23.273Z,4.80
2019-02-16T19:53:24.229Z,3.60
2019-02-16T19:56:25.659Z,4.30
2019-02-16T19:59:30.607Z,3.30
2019-02-16T20:02:22.920Z,3.70
2019-02-16T20:05:17.925Z,1.93
2019-02-16T20:07:59.664Z,2.43
2019-02-16T20:10:44.577Z,4.60
2019-02-16T20:13:23.345Z,7.73
2019-02-16T20:16:00.384Z,3.27
2019-02-16T20:18:52.708Z,6.20
2019-02-16T20:21:42.400Z,3.90
2019-02-16T20:24:29.179Z,3.13
2019-02-16T20:27:10.924Z,3.67
2019-02-16T20:29:55.475Z,4.77
2019-02-16T20:32:45.516Z,8.03
2019-02-16T20:35:47.053Z,3.53
2019-02-16T20:38:50.771Z,6.13
2019-02-16T20:41:51.745Z,7.73
2019-02-16T20:44:53.409Z,4.17
2019-02-16T20:47:58.157Z,5.17
2019-02-16T20:50:49.360Z,4.30
2019-02-16T20:53:44.959Z,4.10
2019-02-16T20:56:29.198Z,5.07
2019-02-16T20:59:16.764Z,5.53
2019-02-16T21:01:59.772Z,3.77
2019-02-16T21:04:48.068Z,5.37
2019-02-16T21:07:35.680Z,3.37
2019-02-16T21:10:31.692Z,6.33
2019-02-16T21:13:11.317Z,4.63
2019-02-16T21:15:48.254Z,9.00
2019-02-16T21:18:31.965Z,6.70
2019-02-16T21:21:32.984Z,5.87
2019-02-16T21:24:21.431Z,5.40
2019-02-16T21:27:10.353Z,6.80
2019-02-16T21:30:05.632Z,6.10
2019-02-16T21:32:45.684Z,4.67
2019-02-16T21:35:24.889Z,5.50
2019-02-16T21:38:08.354Z,8.63
2019-02-16T21:40:52.437Z,9.07
2019-02-16T21:43:47.330Z,8.70
2019-02-16T21:46:48.339Z,7.30
2019-02-16T21:49:46.304Z,10.47
2019-02-16T21:52:23.821Z,9.48
2019-02-16T21:55:32.309Z,4.40
2019-02-16T21:58:33.900Z,3.83
2019-02-16T22:01:25.069Z,4.83
2019-02-16T22:04:17.433Z,5.07
2019-02-16T22:07:19.028Z,7.87
2019-02-16T22:10:23.190Z,8.33
2019-02-16T22:13:11.009Z,6.07
2019-02-16T22:15:52.941Z,9.03
2019-02-16T22:18:35.571Z,7.50
2019-02-16T22:21:18.241Z,6.67
2019-02-16T22:24:00.940Z,5.83
2019-02-16T22:26:43.264Z,5.30
2019-02-16T22:29:25.544Z,6.13
2019-02-16T22:32:08.061Z,7.20
2019-02-16T22:34:50.447Z,7.40
2019-02-16T22:37:32.734Z,8.87
2019-02-16T22:40:14.824Z,7.40
2019-02-16T22:42:56.680Z,7.40
2019-02-16T22:45:39.281Z,6.10
2019-02-16T22:48:21.948Z,5.95
2019-02-16T22:51:04.023Z,6.62
2019-02-16T22:53:46.792Z,4.42
2019-02-16T22:56:29.357Z,3.92
2019-02-16T22:59:11.532Z,6.83
2019-02-16T23:01:53.618Z,4.08
2019-02-16T23:04:34.117Z,5.03
2019-02-16T23:10:28.109Z,5.37
2019-02-16T23:13:17.700Z,3.83
2019-02-16T23:16:00.296Z,4.58
2019-02-16T23:18:43.071Z,3.50
2019-02-16T23:21:25.788Z,3.75
2019-02-16T23:24:08.545Z,8.68
2019-02-16T23:26:50.988Z,5.20
2019-02-16T23:29:33.520Z,4.83
2019-02-16T23:32:15.604Z,3.40
2019-02-16T23:34:57.873Z,2.60
2019-02-16T23:37:40.838Z,3.58
2019-02-16T23:40:23.340Z,2.33
2019-02-16T23:43:04.373Z,2.47
2019-02-16T23:45:54.249Z,5.25
2019-02-16T23:48:36.320Z,4.45
2019-02-16T23:51:19.572Z,2.52
2019-02-16T23:54:02.420Z,6.00
2019-02-16T23:56:45.004Z,4.53
2019-02-16T23:59:27.468Z,2.72
